Time;durP1;ratioP1;P1;durP2;ratioP2;P2;SDS_P1;SDS_P2;PMS_P1;PMS_P2;Temp;Humidity;BMP_temperature;BMP_pressure;BME280_temperature;BME280_humidity;BME280_pressure;Samples;Min_cycle;Max_cycle;Signal;HPM_P1;HPM_P2
2022/05/19 00:01:54;;;;;;;25.38;21.08;;;;;;;18.46;80.27;101748.94;4862407;29;20127;-77
2022/05/19 00:04:20;;;;;;;24.67;22.05;;;;;;;18.43;80.13;101743.97;4862774;29;20461;-78
2022/05/19 00:06:45;;;;;;;26.05;21.27;;;;;;;18.43;80.24;101736.13;4862566;29;20033;-77
2022/05/19 00:09:11;;;;;;;27.20;22.27;;;;;;;18.41;80.39;101738.03;4862679;29;20036;-77
2022/05/19 00:11:37;;;;;;;25.20;22.30;;;;;;;18.30;80.41;101715.38;4862680;29;20018;-77
2022/05/19 00:14:03;;;;;;;25.55;22.45;;;;;;;18.20;80.78;101699.59;4862630;29;20038;-77
2022/05/19 00:16:28;;;;;;;27.20;22.38;;;;;;;18.35;80.68;101727.09;4862363;29;20037;-79
2022/05/19 00:18:54;;;;;;;25.02;22.42;;;;;;;17.92;80.54;101655.75;4862590;29;20064;-79
2022/05/19 00:21:19;;;;;;;24.13;21.58;;;;;;;18.30;81.28;101717.97;4862575;29;20033;-79
2022/05/19 00:23:45;;;;;;;25.50;22.45;;;;;;;18.27;81.05;101716.44;4862521;29;20466;-78
2022/05/19 00:26:10;;;;;;;24.27;21.70;;;;;;;18.26;81.17;101716.56;4845757;29;20037;-77
2022/05/19 00:28:35;;;;;;;24.77;22.13;;;;;;;18.17;81.44;101699.00;4862328;29;20402;-77
2022/05/19 00:31:01;;;;;;;24.33;21.77;;;;;;;18.19;81.37;101707.53;4862270;29;20094;-76
2022/05/19 00:33:27;;;;;;;25.13;22.25;;;;;;;18.14;81.80;101702.69;4862050;29;20101;-77
2022/05/19 00:35:52;;;;;;;26.17;22.52;;;;;;;18.14;81.79;101707.09;4862621;29;20064;-76
2022/05/19 00:38:17;;;;;;;24.92;22.17;;;;;;;17.93;82.03;101673.06;4862040;29;20029;-76
2022/05/19 00:40:49;;;;;;;28.83;22.70;;;;;;;17.72;81.78;101641.66;4862023;29;20029;-76
2022/05/19 00:43:15;;;;;;;26.50;22.65;;;;;;;18.11;81.80;101700.34;4862228;29;20044;-76
2022/05/19 00:45:53;;;;;;;27.48;22.65;;;;;;;17.96;81.99;101686.72;4861802;29;20037;-76
2022/05/19 00:48:24;;;;;;;24.77;22.08;;;;;;;18.05;82.29;101704.28;4861971;29;20037;-76
2022/05/19 00:50:51;;;;;;;26.75;22.88;;;;;;;17.85;82.10;101668.47;4861952;29;20033;-76
2022/05/19 00:53:29;;;;;;;25.90;23.05;;;;;;;18.01;82.33;101695.03;4861917;29;20037;-76
2022/05/19 00:55:56;;;;;;;30.40;23.50;;;;;;;17.98;82.38;101700.47;4861869;29;20025;-76
2022/05/19 00:58:31;;;;;;;25.20;21.25;;;;;;;17.97;82.43;101688.38;4861803;29;20109;-76
2022/05/19 01:00:56;;;;;;;27.10;21.83;;;;;;;17.78;82.31;101651.59;4861846;29;20453;-76
2022/05/19 01:03:23;;;;;;;23.50;21.10;;;;;;;17.83;82.93;101664.31;4861766;29;20049;-76
2022/05/19 01:05:53;;;;;;;24.73;21.20;;;;;;;17.85;82.74;101684.13;4861388;29;20034;-77
2022/05/19 01:08:28;;;;;;;25.80;22.67;;;;;;;17.76;83.03;101663.97;4861605;29;20493;-75
2022/05/19 01:10:55;;;;;;;27.33;22.65;;;;;;;17.71;83.22;101661.75;4861780;29;20026;-77
2022/05/19 01:13:22;;;;;;;25.00;21.38;;;;;;;17.48;83.37;101624.34;4861622;29;20052;-76
2022/05/19 01:15:52;;;;;;;25.20;22.23;;;;;;;17.64;83.55;101654.47;4861415;29;20517;-77
2022/05/19 01:18:19;;;;;;;26.35;22.88;;;;;;;17.70;84.08;101654.84;4844585;29;20124;-77
2022/05/19 01:20:46;;;;;;;27.00;22.83;;;;;;;17.40;83.86;101605.00;4861432;29;20026;-77
2022/05/19 01:23:23;;;;;;;25.48;22.40;;;;;;;17.66;84.34;101648.16;4861512;29;20026;-77
2022/05/19 01:26:12;;;;;;;28.23;23.52;;;;;;;17.64;83.53;101649.25;4861180;29;20057;-77
2022/05/19 01:28:37;;;;;;;27.35;23.52;;;;;;;17.57;84.77;101637.63;4861305;29;20490;-77
2022/05/19 01:31:02;;;;;;;26.60;23.30;;;;;;;17.53;84.77;101637.03;4861093;29;20064;-77
2022/05/19 01:33:28;;;;;;;26.42;23.23;;;;;;;17.43;85.46;101629.09;4860568;29;20025;-77
2022/05/19 01:35:53;;;;;;;27.65;23.75;;;;;;;17.48;85.57;101626.13;4861330;29;20033;-77
2022/05/19 01:38:32;;;;;;;28.48;25.30;;;;;;;17.45;85.52;101623.75;4860987;29;20032;-77
2022/05/19 01:41:03;;;;;;;28.63;25.25;;;;;;;17.46;85.82;101618.41;4861015;29;20029;-77
2022/05/19 01:43:31;;;;;;;29.55;24.63;;;;;;;17.41;86.25;101617.13;4860990;29;20108;-77
2022/05/19 01:46:05;;;;;;;31.50;25.42;;;;;;;17.25;85.60;101590.56;4860917;29;20033;-76
2022/05/19 01:48:47;;;;;;;28.45;24.98;;;;;;;17.02;85.90;101566.28;4844191;29;20037;-77
2022/05/19 01:51:15;;;;;;;27.90;24.90;;;;;;;17.34;86.41;101627.22;4844405;29;20079;-77
2022/05/19 01:53:54;;;;;;;28.25;25.35;;;;;;;17.29;86.57;101624.13;4860836;29;20049;-77
2022/05/19 01:56:36;;;;;;;28.40;25.40;;;;;;;17.26;86.74;101621.78;4860814;29;20061;-77
2022/05/19 01:59:13;;;;;;;28.92;25.42;;;;;;;17.27;86.73;101625.22;4860816;29;20469;-77
2022/05/19 02:01:43;;;;;;;29.20;26.05;;;;;;;17.20;87.23;101622.25;4843765;29;20519;-77
2022/05/19 02:04:09;;;;;;;29.05;25.73;;;;;;;17.14;87.34;101614.91;4860678;29;20426;-77
2022/05/19 02:06:41;;;;;;;28.95;25.95;;;;;;;16.74;87.82;101568.44;4860709;29;20029;-77
2022/05/19 02:09:21;;;;;;;29.02;26.00;;;;;;;16.81;88.15;101576.59;4844239;29;20030;-77
2022/05/19 02:11:56;;;;;;;29.98;26.52;;;;;;;16.68;88.48;101558.47;4860898;29;20025;-77
2022/05/19 02:14:28;;;;;;;29.67;26.25;;;;;;;16.67;88.84;101555.94;4860581;29;20038;-75
2022/05/19 02:16:55;;;;;;;31.63;26.10;;;;;;;16.88;88.99;101589.03;4860603;29;20040;-77
2022/05/19 02:19:26;;;;;;;27.75;24.77;;;;;;;16.82;88.94;101594.75;4860725;29;20457;-78
2022/05/19 02:21:52;;;;;;;29.02;25.98;;;;;;;16.94;88.58;101613.00;4844280;29;20033;-79
2022/05/19 02:24:22;;;;;;;28.23;25.23;;;;;;;16.85;89.05;101594.50;4860761;29;20497;-77
2022/05/19 02:26:47;;;;;;;28.33;25.48;;;;;;;16.99;89.16;101616.91;4859061;29;20464;-76
2022/05/19 02:29:17;;;;;;;30.25;27.13;;;;;;;16.99;89.81;101619.53;4860406;29;20104;-80
2022/05/19 02:31:45;;;;;;;30.30;27.00;;;;;;;16.87;89.92;101592.59;4860572;29;20045;-76
2022/05/19 02:34:11;;;;;;;30.50;27.33;;;;;;;16.56;89.83;101535.91;4843850;29;20048;-77
2022/05/19 02:36:37;;;;;;;29.73;26.67;;;;;;;17.03;90.08;101617.53;4860488;29;20029;-76
2022/05/19 02:39:03;;;;;;;30.75;26.85;;;;;;;17.07;90.05;101611.94;4860496;29;20029;-77
2022/05/19 02:41:28;;;;;;;30.13;27.02;;;;;;;17.07;90.06;101614.53;4860281;29;20037;-77
2022/05/19 02:43:54;;;;;;;29.15;26.10;;;;;;;17.09;89.83;101615.25;4861219;29;20022;-77
2022/05/19 02:46:19;;;;;;;31.05;27.83;;;;;;;17.08;89.78;101626.63;4864288;29;20036;-75
2022/05/19 02:48:45;;;;;;;28.45;25.55;;;;;;;16.89;90.09;101592.47;4847527;29;20471;-76
2022/05/19 02:51:10;;;;;;;29.77;25.75;;;;;;;17.12;90.57;101629.84;4863943;29;20060;-76
2022/05/19 02:53:35;;;;;;;28.10;25.15;;;;;;;17.03;90.33;101610.53;4864030;29;20066;-78
2022/05/19 02:56:01;;;;;;;29.83;26.58;;;;;;;17.24;89.99;101639.34;4864048;29;20030;-77
2022/05/19 02:58:26;;;;;;;29.35;26.23;;;;;;;17.17;90.09;101625.94;4863722;29;20104;-77
2022/05/19 03:00:51;;;;;;;28.67;25.67;;;;;;;17.36;89.58;101655.81;4863867;29;20113;-77
2022/05/19 03:03:18;;;;;;;27.75;24.80;;;;;;;17.38;89.20;101670.41;4863617;29;20069;-77
2022/05/19 03:05:43;;;;;;;28.67;25.70;;;;;;;17.42;89.32;101759.78;4863867;29;20036;-77
2022/05/19 03:08:10;;;;;;;28.67;25.77;;;;;;;17.50;89.21;101762.63;4863724;29;20029;-77
2022/05/19 03:10:38;;;;;;;29.92;26.83;;;;;;;17.57;88.58;101773.44;4863565;29;20029;-76
2022/05/19 03:13:04;;;;;;;25.98;22.25;;;;;;;17.74;86.62;101788.66;4863502;29;20033;-76
2022/05/19 03:15:30;;;;;;;24.55;21.60;;;;;;;17.95;84.15;101783.53;4863687;29;20094;-77
2022/05/19 03:17:55;;;;;;;22.05;19.75;;;;;;;18.03;82.32;101753.22;4863556;29;20025;-77
2022/05/19 03:20:21;;;;;;;22.42;20.02;;;;;;;18.28;81.65;101759.09;4863443;29;20032;-76
2022/05/19 03:22:46;;;;;;;22.30;20.10;;;;;;;18.42;82.10;101768.44;4846904;29;20034;-77
2022/05/19 03:25:12;;;;;;;22.35;19.95;;;;;;;18.41;81.68;101774.63;4863575;29;20060;-77
2022/05/19 03:27:38;;;;;;;21.20;18.98;;;;;;;18.52;81.51;101785.06;4863243;29;20109;-77
2022/05/19 03:30:07;;;;;;;21.40;19.25;;;;;;;18.55;81.50;101775.16;4863386;29;20033;-77
2022/05/19 03:32:32;;;;;;;18.80;16.90;;;;;;;18.66;81.20;101790.00;4863276;29;20104;-77
2022/05/19 03:34:58;;;;;;;19.00;16.58;;;;;;;18.68;81.26;101784.66;4863387;29;20121;-77
2022/05/19 03:37:23;;;;;;;19.48;17.52;;;;;;;18.68;81.45;101787.25;4863346;29;20502;-78
2022/05/19 03:39:48;;;;;;;19.20;17.33;;;;;;;18.67;81.26;101789.06;4863108;29;20041;-79
2022/05/19 03:42:14;;;;;;;22.60;18.20;;;;;;;18.66;81.28;101782.16;4863012;29;20029;-77
2022/05/19 03:44:39;;;;;;;19.55;17.35;;;;;;;18.63;81.67;101778.00;4863012;29;20033;-78
2022/05/19 03:47:05;;;;;;;19.20;16.85;;;;;;;18.50;81.91;101764.25;4863221;29;20105;-79
2022/05/19 03:49:32;;;;;;;20.55;17.77;;;;;;;18.21;81.77;101731.81;4862921;29;20029;-79
2022/05/19 03:51:57;;;;;;;20.13;18.05;;;;;;;18.30;81.60;101746.75;4863063;29;20033;-78
2022/05/19 03:54:23;;;;;;;19.23;17.27;;;;;;;18.47;82.32;101785.41;4845495;29;20048;-79
2022/05/19 03:56:49;;;;;;;19.05;16.90;;;;;;;18.41;83.47;101779.88;4862903;29;20026;-79
2022/05/19 03:59:14;;;;;;;18.88;15.77;;;;;;;18.25;84.17;101780.25;4862824;29;20057;-79
2022/05/19 04:01:40;;;;;;;18.83;16.92;;;;;;;18.13;84.47;101750.72;4846201;29;20040;-79
2022/05/19 04:04:06;;;;;;;16.95;15.35;;;;;;;18.38;83.33;101767.03;4862411;29;20098;-79
2022/05/19 04:06:34;;;;;;;18.20;16.30;;;;;;;18.37;83.90;101797.56;4862746;29;20034;-79
2022/05/19 04:08:59;;;;;;;16.92;15.23;;;;;;;18.38;83.58;101803.63;4862528;29;20085;-79
2022/05/19 04:11:26;;;;;;;16.17;14.55;;;;;;;18.37;83.86;101800.19;4846173;29;20029;-79
2022/05/19 04:13:52;;;;;;;14.90;13.50;;;;;;;18.38;83.99;101806.25;4862539;29;20029;-79
2022/05/19 04:16:17;;;;;;;14.07;12.38;;;;;;;18.09;83.43;101762.34;4862359;29;20109;-77
2022/05/19 04:18:42;;;;;;;13.68;11.77;;;;;;;18.38;84.34;101807.06;4862278;29;20052;-79
2022/05/19 04:21:08;;;;;;;13.65;11.50;;;;;;;18.40;83.95;101802.56;4862271;29;20082;-79
2022/05/19 04:23:33;;;;;;;13.05;11.75;;;;;;;18.34;84.18;101793.44;4862422;29;20058;-78
2022/05/19 04:25:59;;;;;;;12.63;11.38;;;;;;;18.29;84.11;101789.53;4862274;29;20073;-78
2022/05/19 04:28:24;;;;;;;14.90;11.75;;;;;;;18.35;84.40;101792.47;4862481;29;20026;-77
2022/05/19 04:30:50;;;;;;;13.85;11.82;;;;;;;17.93;84.50;101728.78;4862184;29;20041;-79
2022/05/19 04:33:15;;;;;;;14.60;12.02;;;;;;;18.39;84.50;101797.47;4862104;29;20029;-79
2022/05/19 04:35:41;;;;;;;13.13;11.00;;;;;;;18.11;85.97;101763.09;4861982;29;20034;-79
2022/05/19 04:38:15;;;;;;;13.90;10.82;;;;;;;18.27;85.91;101794.03;4862264;29;20038;-80
2022/05/19 04:40:44;;;;;;;14.73;11.38;;;;;;;18.29;86.58;101792.97;4862133;29;20034;-79
2022/05/19 04:43:10;;;;;;;12.00;10.80;;;;;;;18.13;85.83;101753.31;4861892;29;20030;-79
2022/05/19 04:45:36;;;;;;;12.20;10.95;;;;;;;18.41;85.88;101788.53;4862022;29;20037;-78
2022/05/19 04:48:02;;;;;;;11.80;10.52;;;;;;;18.50;85.52;101784.34;4861949;29;20497;-79
2022/05/19 04:50:28;;;;;;;12.07;10.63;;;;;;;18.35;85.46;101761.09;4861825;29;20482;-77
2022/05/19 04:52:58;;;;;;;11.82;10.45;;;;;;;18.55;86.41;101793.47;4862080;29;20057;-78
2022/05/19 04:55:24;;;;;;;12.20;10.93;;;;;;;18.35;85.66;101758.47;4861910;29;20049;-79
2022/05/19 04:57:49;;;;;;;12.02;8.93;;;;;;;18.42;84.12;101765.84;4861740;29;20482;-79
2022/05/19 05:00:15;;;;;;;8.77;7.88;;;;;;;18.54;83.25;101789.19;4861707;29;20069;-79
2022/05/19 05:02:40;;;;;;;8.80;6.85;;;;;;;18.37;82.76;101740.03;4861490;29;20112;-79
2022/05/19 05:05:07;;;;;;;9.73;7.35;;;;;;;18.60;82.60;101791.34;4861277;29;20029;-79
2022/05/19 05:07:32;;;;;;;9.43;6.80;;;;;;;18.24;82.25;101729.75;4860808;29;20041;-81
2022/05/19 05:09:58;;;;;;;10.65;6.68;;;;;;;18.62;81.85;101772.88;4861850;29;20168;-77
2022/05/19 05:12:23;;;;;;;7.95;6.57;;;;;;;18.45;83.00;101749.88;4861807;29;20030;-79
2022/05/19 05:14:48;;;;;;;8.68;6.90;;;;;;;18.61;82.24;101782.53;4861342;29;20109;-74
2022/05/19 05:17:14;;;;;;;8.70;6.22;;;;;;;18.60;82.13;101783.47;4846357;29;20045;-81
2022/05/19 05:19:40;;;;;;;8.00;6.18;;;;;;;18.58;82.13;101785.41;4842843;29;20026;-81
2022/05/19 05:22:06;;;;;;;9.25;5.32;;;;;;;18.51;81.82;101775.56;4842958;29;20053;-82
2022/05/19 05:24:32;;;;;;;8.38;5.40;;;;;;;18.58;81.92;101780.16;4842987;29;20468;-83
2022/05/19 05:26:57;;;;;;;7.40;5.43;;;;;;;18.56;81.85;101768.16;4842942;29;20043;-82
2022/05/19 05:29:22;;;;;;;7.18;4.93;;;;;;;18.47;82.84;101766.28;4842813;29;20022;-82
2022/05/19 05:31:48;;;;;;;5.93;4.93;;;;;;;18.38;83.70;101739.09;4842558;29;20057;-82
2022/05/19 05:34:13;;;;;;;17.00;7.50;;;;;;;18.26;87.52;101725.22;4826296;29;20506;-89
2022/05/19 05:36:39;;;;;;;13.25;7.63;;;;;;;17.91;91.59;101690.66;4842860;29;20116;-88
2022/05/19 05:39:04;;;;;;;11.43;7.30;;;;;;;17.35;94.60;101647.16;4842738;29;20518;-85
2022/05/19 05:41:30;;;;;;;11.68;8.30;;;;;;;16.80;96.33;101573.16;4842695;29;20062;-82
2022/05/19 05:43:55;;;;;;;10.48;7.50;;;;;;;17.49;98.21;101674.78;4842852;29;20034;-84
2022/05/19 05:46:21;;;;;;;13.52;9.00;;;;;;;17.44;98.95;101653.44;4842222;29;20600;-82
2022/05/19 05:48:48;;;;;;;10.95;8.10;;;;;;;17.45;98.11;101635.03;4842470;29;20033;-79
2022/05/19 05:51:15;;;;;;;10.82;7.60;;;;;;;17.47;100.00;101625.28;4832544;29;20414;-81
2022/05/19 05:53:42;;;;;;;9.48;7.30;;;;;;;17.46;100.00;101635.88;4860753;29;20032;-81
2022/05/19 05:56:11;;;;;;;10.38;7.80;;;;;;;17.26;99.76;101602.66;4860775;29;20474;-82
2022/05/19 05:58:39;;;;;;;9.95;7.60;;;;;;;17.57;99.41;101682.03;4860783;29;20112;-80
2022/05/19 06:01:08;;;;;;;8.80;7.82;;;;;;;17.68;100.00;101677.59;4843763;29;20514;-84
2022/05/19 06:03:34;;;;;;;9.57;7.80;;;;;;;17.73;100.00;101669.44;4860500;29;20049;-85
2022/05/19 06:06:01;;;;;;;10.15;8.13;;;;;;;16.64;100.00;101505.69;4860678;29;20033;-83
2022/05/19 06:08:27;;;;;;;15.60;9.05;;;;;;;17.85;100.00;101675.47;4860866;29;20113;-82
2022/05/19 06:10:52;;;;;;;9.50;8.13;;;;;;;17.88;100.00;101657.75;4860576;29;20061;-80
2022/05/19 06:13:18;;;;;;;12.50;8.88;;;;;;;17.91;99.97;101657.53;4860503;29;20037;-81
2022/05/19 06:15:43;;;;;;;10.35;9.23;;;;;;;17.97;100.00;101664.03;4860524;29;20053;-81
2022/05/19 06:18:09;;;;;;;11.43;8.93;;;;;;;18.02;100.00;101660.09;4860471;29;20033;-79
2022/05/19 06:20:35;;;;;;;11.02;9.85;;;;;;;17.94;97.91;101641.59;4860400;29;20036;-76
2022/05/19 06:23:00;;;;;;;11.82;10.63;;;;;;;18.11;97.87;101673.38;4843569;29;20447;-76
2022/05/19 06:25:26;;;;;;;12.05;10.80;;;;;;;18.10;97.21;101669.09;4860456;29;20037;-75
2022/05/19 06:27:53;;;;;;;12.43;11.10;;;;;;;18.27;97.36;101668.53;4860257;29;20037;-76
2022/05/19 06:30:20;;;;;;;12.57;11.30;;;;;;;18.64;98.35;101692.47;4860359;29;20089;-76
2022/05/19 06:32:47;;;;;;;12.43;11.13;;;;;;;18.84;98.30;101683.00;4860301;29;20033;-75
2022/05/19 06:35:16;;;;;;;13.40;11.15;;;;;;;19.05;95.47;101681.16;4860246;29;20025;-75
2022/05/19 06:37:42;;;;;;;15.02;10.77;;;;;;;18.81;93.42;101615.22;4860430;29;20386;-74
2022/05/19 06:40:09;;;;;;;12.32;10.20;;;;;;;19.29;93.88;101683.50;4860380;29;20034;-75
2022/05/19 06:42:37;;;;;;;12.00;10.55;;;;;;;19.42;92.86;101681.47;4860231;29;20113;-76
2022/05/19 06:45:04;;;;;;;12.48;10.77;;;;;;;19.41;92.08;101660.63;4860220;29;20029;-75
2022/05/19 06:47:30;;;;;;;13.73;11.25;;;;;;;19.72;91.98;101683.22;4860333;29;20402;-75
2022/05/19 06:49:55;;;;;;;12.38;11.07;;;;;;;19.88;90.33;101685.31;4860228;29;20033;-76
2022/05/19 06:52:23;;;;;;;12.40;11.10;;;;;;;19.90;88.10;101661.59;4860167;29;20026;-76
2022/05/19 06:54:54;;;;;;;12.15;10.95;;;;;;;20.05;88.03;101668.06;4860280;29;20470;-74
2022/05/19 06:57:21;;;;;;;14.17;11.63;;;;;;;20.12;89.42;101658.69;4860102;29;20025;-79
2022/05/19 06:59:49;;;;;;;12.75;11.25;;;;;;;20.08;89.17;101656.50;4859983;29;20409;-78
2022/05/19 07:02:15;;;;;;;12.80;11.48;;;;;;;20.10;87.28;101663.25;4860058;29;20022;-74
2022/05/19 07:04:40;;;;;;;11.38;10.27;;;;;;;20.10;84.28;101655.38;4860057;29;20066;-76
2022/05/19 07:07:07;;;;;;;14.30;11.07;;;;;;;19.99;85.80;101661.59;4860028;29;20030;-76
2022/05/19 07:09:34;;;;;;;12.20;10.90;;;;;;;20.04;86.21;101666.41;4859769;29;20550;-80
2022/05/19 07:12:00;;;;;;;13.43;10.60;;;;;;;20.02;87.98;101650.00;4859925;29;20470;-74
2022/05/19 07:14:26;;;;;;;12.32;10.50;;;;;;;20.13;85.88;101651.66;4860007;29;20036;-74
2022/05/19 07:16:52;;;;;;;12.07;10.88;;;;;;;20.06;86.70;101635.66;4859887;29;20480;-82
2022/05/19 07:22:04;;;;;;;10.95;9.95;;;;;;;20.32;84.00;101635.91;4859786;29;20493;-82
2022/05/19 07:24:31;;;;;;;11.35;10.15;;;;;;;20.29;82.62;101630.94;4859697;29;20478;-78
2022/05/19 07:26:57;;;;;;;10.50;9.40;;;;;;;20.37;82.04;101625.00;4859897;29;20495;-78
2022/05/19 07:29:23;;;;;;;13.00;9.98;;;;;;;20.42;80.46;101636.72;4860012;29;20502;-82
2022/05/19 07:31:50;;;;;;;11.80;10.25;;;;;;;20.53;81.25;101625.25;4863288;29;20459;-76
2022/05/19 07:34:21;;;;;;;11.25;10.05;;;;;;;20.67;79.81;101622.19;4863302;29;20033;-81
2022/05/19 07:36:47;;;;;;;11.73;10.57;;;;;;;21.07;80.66;101627.16;4863163;29;20058;-79
2022/05/19 07:39:13;;;;;;;12.57;11.18;;;;;;;21.08;77.76;101585.97;4863177;29;20033;-82
2022/05/19 07:41:39;;;;;;;13.63;10.82;;;;;;;21.22;75.93;101555.72;4863202;29;20068;-86
2022/05/19 07:44:07;;;;;;;11.90;10.68;;;;;;;21.67;76.45;101589.88;4863164;29;20030;-88
2022/05/19 07:46:40;;;;;;;12.48;10.85;;;;;;;22.04;73.60;101601.06;4846607;29;20105;-81
2022/05/19 07:49:19;;;;;;;12.30;10.85;;;;;;;22.41;73.06;101634.22;4863327;29;20029;-90
2022/05/19 07:51:45;;;;;;;14.45;11.73;;;;;;;22.76;72.46;101659.63;4845992;29;20048;-85
2022/05/19 07:54:15;;;;;;;13.93;12.35;;;;;;;22.99;72.11;101662.59;4863023;29;20475;-86
2022/05/19 07:56:50;;;;;;;16.75;12.85;;;;;;;22.11;70.05;101517.13;4847077;29;20040;-85
2022/05/19 07:59:16;;;;;;;15.30;13.70;;;;;;;23.04;68.96;101672.66;4844056;29;20034;-88
2022/05/19 08:01:44;;;;;;;16.65;14.48;;;;;;;22.11;69.57;101495.25;4844538;29;20480;-86
2022/05/19 08:04:23;;;;;;;17.40;14.55;;;;;;;22.36;71.81;101499.66;4844093;29;20507;-87
2022/05/19 08:06:49;;;;;;;17.42;15.70;;;;;;;22.44;69.24;101512.88;4844003;29;20150;-85
2022/05/19 08:12:05;;;;;;;19.98;17.98;;;;;;;22.49;69.42;101521.09;4834171;24;20065;-87
2022/05/19 08:17:17;;;;;;;18.02;16.23;;;;;;;22.65;69.13;101506.38;4826060;29;20106;-85
2022/05/19 08:19:42;;;;;;;17.88;16.17;;;;;;;22.89;66.88;101528.38;4825571;29;20078;-89
2022/05/19 08:22:08;;;;;;;17.35;15.55;;;;;;;23.64;67.33;101636.47;4825667;29;20050;-88
2022/05/19 08:24:37;;;;;;;17.20;15.40;;;;;;;22.68;65.22;101459.47;4805157;29;20151;-88
2022/05/19 08:27:06;;;;;;;16.55;14.85;;;;;;;23.87;64.85;101644.56;4805608;29;20054;-85
2022/05/19 08:29:45;;;;;;;15.98;14.38;;;;;;;23.27;65.52;101539.34;4805443;29;20118;-85
2022/05/19 08:32:10;;;;;;;17.50;14.60;;;;;;;23.27;65.03;101546.41;4805480;29;20126;-88
2022/05/19 08:34:42;;;;;;;17.67;14.38;;;;;;;23.00;65.04;101469.28;4790338;29;20043;-85
2022/05/19 08:37:07;;;;;;;15.30;12.73;;;;;;;24.00;62.88;101617.72;4805144;29;20067;-77
2022/05/19 08:39:32;;;;;;;14.77;12.95;;;;;;;24.24;64.10;101630.91;4805221;29;20075;-75
2022/05/19 08:42:02;;;;;;;14.45;12.23;;;;;;;24.35;61.53;101644.78;4804365;29;20514;-79
2022/05/19 08:44:58;;;;;;;13.98;12.15;;;;;;;24.46;63.17;101636.50;4805328;29;20043;-77
2022/05/19 08:47:28;;;;;;;17.92;13.35;;;;;;;24.43;60.61;101618.38;4769187;30;20068;-77
2022/05/19 08:50:10;;;;;;;14.73;13.10;;;;;;;24.77;61.37;101640.06;4769094;30;20044;-77
2022/05/19 08:52:40;;;;;;;13.73;11.77;;;;;;;24.72;60.79;101612.53;4768997;30;20040;-76
2022/05/19 08:55:08;;;;;;;;;;;;;;;25.06;62.98;101639.47;4775285;30;20047;-80
2022/05/19 08:57:48;;;;;;;15.50;13.05;;;;;;;25.11;59.99;101633.69;4786857;30;19917;-81
2022/05/19 09:00:18;;;;;;;14.60;13.10;;;;;;;25.19;59.52;101636.31;4787206;30;20431;-77
2022/05/19 09:03:24;;;;;;;13.35;11.95;;;;;;;25.27;59.50;101628.34;4786823;29;20476;-79
2022/05/19 09:06:02;;;;;;;13.80;11.02;;;;;;;25.38;56.80;101625.31;4786474;29;20083;-78
2022/05/19 09:08:46;;;;;;;10.90;9.80;;;;;;;25.56;55.91;101627.66;4786682;30;20035;-77
2022/05/19 09:11:18;;;;;;;14.43;9.90;;;;;;;25.68;54.29;101620.16;4786554;30;20066;-76
2022/05/19 09:13:58;;;;;;;12.50;9.25;;;;;;;25.86;55.40;101620.72;4786685;29;20603;-78
2022/05/19 09:16:25;;;;;;;13.67;9.30;;;;;;;25.99;52.48;101618.28;4786604;29;20408;-75
2022/05/19 09:19:06;;;;;;;11.05;8.80;;;;;;;26.06;54.44;101585.81;4786612;29;20035;-78
2022/05/19 09:21:37;;;;;;;12.15;8.73;;;;;;;26.48;52.98;101611.72;4786571;30;20128;-78
2022/05/19 09:24:04;;;;;;;11.80;8.95;;;;;;;25.99;51.33;101495.72;4810339;29;20514;-83
2022/05/19 09:26:53;;;;;;;11.07;7.25;;;;;;;26.63;51.98;101578.09;4824843;29;20065;-84
2022/05/19 09:29:30;;;;;;;14.27;8.48;;;;;;;26.86;50.53;101610.63;4824204;29;20090;-85
2022/05/19 09:32:30;;;;;;;11.07;8.27;;;;;;;26.72;50.34;101586.78;4824701;29;20023;-83
2022/05/19 09:35:15;;;;;;;14.55;7.75;;;;;;;26.96;51.54;101612.16;4802998;29;20399;-81
2022/05/19 09:38:06;;;;;;;10.43;8.25;;;;;;;26.98;50.67;101612.78;4824524;29;20027;-85
2022/05/19 09:41:03;;;;;;;11.77;7.45;;;;;;;26.74;51.38;101567.03;4824698;29;20031;-83
2022/05/19 09:43:37;;;;;;;10.82;7.75;;;;;;;26.29;50.16;101491.25;4807958;29;20104;-83
2022/05/19 09:46:04;;;;;;;10.85;7.35;;;;;;;26.91;49.87;101599.44;4824443;29;20368;-84
2022/05/19 09:48:35;;;;;;;12.02;8.20;;;;;;;26.91;49.57;101619.84;4824676;29;20026;-83
2022/05/19 09:51:11;;;;;;;12.98;7.38;;;;;;;25.76;49.83;101457.88;4824342;29;20041;-84
2022/05/19 09:53:55;;;;;;;11.00;7.75;;;;;;;26.16;51.50;101523.66;4823733;29;20030;-82
2022/05/19 09:56:23;;;;;;;8.60;7.22;;;;;;;25.95;50.79;101524.34;4824178;29;20026;-79
2022/05/19 09:59:07;;;;;;;10.15;7.28;;;;;;;26.46;52.41;101606.63;4807640;29;20405;-83
2022/05/19 10:01:45;;;;;;;9.50;6.85;;;;;;;26.16;52.28;101544.84;4824286;29;20038;-82
2022/05/19 10:04:26;;;;;;;10.68;7.03;;;;;;;26.64;51.36;101597.47;4807533;29;20045;-82
2022/05/19 10:06:56;;;;;;;10.25;6.63;;;;;;;26.46;51.34;101556.28;4807620;29;20114;-83
2022/05/19 10:09:42;;;;;;;11.20;6.90;;;;;;;26.92;50.28;101593.13;4824019;29;20443;-86
2022/05/19 10:12:10;;;;;;;17.13;7.85;;;;;;;26.28;51.10;101466.59;4812107;29;20046;-84
2022/05/19 10:15:02;;;;;;;11.85;7.10;;;;;;;27.11;51.55;101565.25;4805847;29;20443;-86
2022/05/19 10:18:22;;;;;;;10.10;7.30;;;;;;;26.99;51.84;101492.50;4805901;29;20038;-86
2022/05/19 10:21:13;;;;;;;13.50;7.40;;;;;;;27.67;49.67;101531.75;4806093;29;20042;-83
2022/05/19 10:23:59;;;;;;;11.13;7.10;;;;;;;27.51;49.19;101467.50;4788796;29;20488;-85
2022/05/19 10:26:44;;;;;;;10.70;7.40;;;;;;;28.05;47.01;101539.38;4789401;29;20047;-83
2022/05/19 10:33:22;;;;;;;10.07;6.80;;;;;;;28.33;47.16;101543.88;4789227;29;20069;-82
2022/05/19 10:36:11;;;;;;;9.65;6.40;;;;;;;28.24;46.95;101506.81;4805643;29;20035;-84
2022/05/19 10:39:01;;;;;;;9.00;5.55;;;;;;;28.62;47.92;101503.75;4805310;29;20545;-82
2022/05/19 10:41:39;;;;;;;7.65;5.15;;;;;;;29.06;45.42;101537.84;4805591;29;20391;-83
2022/05/19 10:44:27;;;;;;;10.07;4.93;;;;;;;29.20;44.48;101540.53;4805747;29;20030;-84
2022/05/19 10:47:05;;;;;;;9.90;4.75;;;;;;;29.01;43.39;101515.56;4805568;29;20043;-85
2022/05/19 10:49:52;;;;;;;9.65;5.03;;;;;;;29.38;43.49;101543.41;4789503;29;20404;-87
2022/05/19 10:52:36;;;;;;;7.97;4.75;;;;;;;29.39;43.18;101529.91;4789372;29;20503;-86
2022/05/19 10:55:20;;;;;;;6.18;3.97;;;;;;;28.99;41.33;101512.25;4788918;29;20039;-84
2022/05/19 10:58:02;;;;;;;8.63;4.45;;;;;;;29.13;43.43;101527.22;4805827;29;20037;-82
2022/05/19 11:00:46;;;;;;;8.18;3.97;;;;;;;29.17;42.99;101523.13;4805441;29;20031;-85
2022/05/19 11:03:32;;;;;;;5.97;4.10;;;;;;;29.15;41.56;101538.47;4805316;29;20030;-87
2022/05/19 11:06:57;;;;;;;8.90;4.38;;;;;;;28.99;42.64;101534.34;4807270;29;20476;-82
2022/05/19 11:09:40;;;;;;;7.28;4.05;;;;;;;28.44;43.28;101527.38;4808250;29;20476;-85
2022/05/19 11:12:42;;;;;;;8.68;4.38;;;;;;;28.32;44.07;101532.44;4819836;29;20054;-87
2022/05/19 11:15:36;;;;;;;7.63;4.68;;;;;;;27.89;44.05;101490.03;4826988;29;20035;-86
2022/05/19 11:18:13;;;;;;;10.90;4.47;;;;;;;27.55;44.90;101474.06;4827001;29;20054;-86
2022/05/19 11:20:44;;;;;;;8.38;4.70;;;;;;;27.64;45.99;101518.03;4826816;29;20053;-85
2022/05/19 11:23:30;;;;;;;8.32;4.40;;;;;;;26.58;46.61;101385.28;4827213;29;20033;-85
2022/05/19 11:26:43;;;;;;;8.88;4.80;;;;;;;26.15;46.70;101378.22;4810405;29;20033;-85
2022/05/19 11:29:38;;;;;;;8.27;5.00;;;;;;;26.64;46.63;101542.63;4804997;29;20503;-84
2022/05/19 11:35:15;;;;;;;8.57;4.70;;;;;;;26.05;49.71;101558.50;4769783;30;20035;-79
2022/05/19 11:37:53;;;;;;;11.57;5.20;;;;;;;25.78;50.65;101565.22;4770625;30;20472;-77
2022/05/19 11:40:30;;;;;;;9.45;4.90;;;;;;;25.55;52.50;101559.06;4770372;30;20085;-77
2022/05/19 11:43:07;;;;;;;8.23;4.85;;;;;;;25.07;52.65;101526.66;4770522;30;20059;-82
2022/05/19 11:46:19;;;;;;;11.32;4.75;;;;;;;25.20;54.15;101606.22;4770411;30;20048;-82
2022/05/19 11:55:29;;;;;;;11.52;2.70;;;;;;;19.90;82.54;101935.06;4717171;30;20053;-78